Time;durP1;ratioP1;P1;durP2;ratioP2;P2;SDS_P1;SDS_P2;PMS_P1;PMS_P2;Temp;Humidity;BMP_temperature;BMP_pressure;BME280_temperature;BME280_humidity;BME280_pressure;Samples;Min_cycle;Max_cycle;Signal;HPM_P1;HPM_P2
2023/01/01 00:01:44;;;;;;;11.90;6.30;;;17.10;59.90;;;;;;5134378;27;20462;-61
2023/01/01 00:04:14;;;;;;;15.17;7.10;;;17.10;60.30;;;;;;5134529;27;20446;-61
2023/01/01 00:06:41;;;;;;;10.60;7.27;;;17.20;59.80;;;;;;5134606;27;20450;-61
2023/01/01 00:11:52;;;;;;;14.87;6.33;;;17.20;59.80;;;;;;5134478;28;20476;-61
2023/01/01 00:14:19;;;;;;;20.50;7.60;;;17.20;58.80;;;;;;5134061;27;20972;-61
2023/01/01 00:16:46;;;;;;;13.47;5.80;;;17.10;58.80;;;;;;5134183;27;20446;-61
2023/01/01 00:19:14;;;;;;;11.90;7.30;;;17.10;59.10;;;;;;5142700;27;20445;-61
2023/01/01 00:21:40;;;;;;;12.53;6.00;;;17.20;58.80;;;;;;5147412;27;20465;-61
2023/01/01 00:24:07;;;;;;;8.47;5.83;;;17.20;58.50;;;;;;5145885;27;20792;-62
2023/01/01 00:26:34;;;;;;;11.67;6.77;;;17.20;58.60;;;;;;5138086;27;20499;-61
2023/01/01 00:29:01;;;;;;;13.60;4.60;;;17.20;59.30;;;;;;5138202;27;20581;-61
2023/01/01 00:31:28;;;;;;;11.40;5.67;;;17.10;58.00;;;;;;5137795;27;20462;-61
2023/01/01 00:33:56;;;;;;;14.97;5.27;;;17.10;58.00;;;;;;5141900;27;20430;-62
2023/01/01 00:36:25;;;;;;;7.93;3.67;;;17.00;57.90;;;;;;5139093;27;20460;-61
2023/01/01 00:38:52;;;;;;;6.27;4.43;;;17.00;57.30;;;;;;5137964;27;20445;-61
2023/01/01 00:41:19;;;;;;;10.10;4.40;;;17.00;57.80;;;;;;5137550;27;20481;-61
2023/01/01 00:43:46;;;;;;;10.10;3.70;;;17.00;58.10;;;;;;5141989;27;20938;-61
2023/01/01 00:46:13;;;;;;;9.83;3.63;;;17.00;58.10;;;;;;5141315;27;20473;-61
2023/01/01 00:48:40;;;;;;;10.13;3.80;;;16.90;58.70;;;;;;5137591;27;20488;-61
2023/01/01 00:51:07;;;;;;;6.73;3.90;;;16.80;58.90;;;;;;5137712;27;20474;-62
2023/01/01 00:53:35;;;;;;;6.80;3.27;;;16.90;58.40;;;;;;5137599;27;20450;-61
2023/01/01 00:56:02;;;;;;;9.67;3.33;;;16.80;58.30;;;;;;5137594;27;20469;-61
2023/01/01 00:58:29;;;;;;;5.63;2.53;;;16.80;58.20;;;;;;5137525;27;20422;-62
2023/01/01 01:00:56;;;;;;;7.87;2.70;;;16.70;57.40;;;;;;5137722;27;20469;-62
2023/01/01 01:03:29;;;;;;;6.23;2.90;;;16.80;57.40;;;;;;5137640;27;20443;-61
2023/01/01 01:05:58;;;;;;;6.70;2.03;;;16.70;57.40;;;;;;5137390;27;20456;-61
2023/01/01 01:08:25;;;;;;;5.13;1.90;;;16.70;56.80;;;;;;5137107;27;21032;-61
2023/01/01 01:10:53;;;;;;;4.40;2.00;;;16.70;56.30;;;;;;5137495;27;20477;-62
2023/01/01 01:13:20;;;;;;;11.63;2.73;;;16.70;57.00;;;;;;5137374;27;20453;-62
2023/01/01 01:15:47;;;;;;;4.10;1.63;;;16.60;57.20;;;;;;5137994;27;20454;-62
2023/01/01 01:18:14;;;;;;;5.23;2.20;;;16.60;57.20;;;;;;5148755;27;20437;-62
2023/01/01 01:20:40;;;;;;;7.60;2.10;;;16.60;56.90;;;;;;5157640;27;21057;-62
2023/01/01 01:23:07;;;;;;;4.63;1.33;;;16.60;56.60;;;;;;5154607;27;20437;-62
2023/01/01 01:25:34;;;;;;;4.17;2.20;;;16.50;56.60;;;;;;5157956;27;20434;-61
2023/01/01 01:28:02;;;;;;;3.23;1.60;;;16.50;56.80;;;;;;5157632;27;20950;-61
2023/01/01 01:30:29;;;;;;;5.87;2.17;;;16.50;56.70;;;;;;5157026;27;20452;-62
2023/01/01 01:32:56;;;;;;;5.10;2.00;;;16.50;56.90;;;;;;5157685;27;20454;-61
2023/01/01 01:35:22;;;;;;;4.17;1.70;;;16.50;56.80;;;;;;5157708;27;20450;-62
2023/01/01 01:37:49;;;;;;;2.30;1.37;;;16.50;57.00;;;;;;5157263;27;20432;-61
2023/01/01 01:40:17;;;;;;;3.50;1.70;;;16.50;57.40;;;;;;5157087;27;20461;-61
2023/01/01 01:42:46;;;;;;;3.93;1.93;;;16.50;57.60;;;;;;5157488;27;20502;-62
2023/01/01 01:45:15;;;;;;;4.63;2.00;;;16.50;57.20;;;;;;5157398;27;20437;-61
2023/01/01 01:47:48;;;;;;;3.00;1.57;;;16.40;56.90;;;;;;5157516;27;20480;-62
2023/01/01 01:50:22;;;;;;;3.40;1.80;;;16.40;57.10;;;;;;5157565;27;20429;-61
2023/01/01 01:53:04;;;;;;;3.50;1.77;;;16.30;57.30;;;;;;5157499;27;20524;-60
2023/01/01 01:55:33;;;;;;;4.27;1.70;;;16.30;58.00;;;;;;5157306;27;20431;-61
2023/01/01 01:58:00;;;;;;;3.73;1.47;;;16.30;57.70;;;;;;5157265;27;20452;-61
2023/01/01 02:00:28;;;;;;;5.43;1.73;;;16.30;57.60;;;;;;5157052;27;20438;-62
2023/01/01 02:02:59;;;;;;;5.83;1.93;;;16.30;58.10;;;;;;5157015;27;20441;-61
2023/01/01 02:05:27;;;;;;;9.50;2.30;;;16.30;57.70;;;;;;5157278;27;20433;-62
2023/01/01 02:07:54;;;;;;;4.20;1.10;;;16.30;57.40;;;;;;5157120;27;20620;-61
2023/01/01 02:10:22;;;;;;;2.57;1.60;;;16.30;58.00;;;;;;5156776;27;20445;-62
2023/01/01 02:12:48;;;;;;;3.13;1.70;;;16.30;57.40;;;;;;5157993;27;20453;-61
2023/01/01 02:15:15;;;;;;;5.00;1.60;;;16.30;57.60;;;;;;5157214;27;20460;-61
2023/01/01 02:17:54;;;;;;;3.87;2.53;;;16.20;57.30;;;;;;5157256;27;20455;-61
2023/01/01 02:20:32;;;;;;;2.60;1.50;;;16.20;57.60;;;;;;5157524;27;20432;-61
2023/01/01 02:23:17;;;;;;;3.80;1.53;;;16.30;58.10;;;;;;5157062;27;20440;-61
2023/01/01 02:25:57;;;;;;;3.60;1.97;;;16.20;57.60;;;;;;5156759;27;20425;-61
2023/01/01 02:28:42;;;;;;;4.27;1.40;;;16.20;58.10;;;;;;5156685;27;20461;-61
2023/01/01 02:31:11;;;;;;;5.50;2.00;;;16.20;58.40;;;;;;5156415;27;20885;-61
2023/01/01 02:33:39;;;;;;;3.50;1.83;;;16.10;58.50;;;;;;5156738;27;20453;-61
2023/01/01 02:36:06;;;;;;;6.90;2.10;;;16.10;58.50;;;;;;5156626;27;20888;-61
2023/01/01 02:38:36;;;;;;;4.97;2.03;;;16.10;59.00;;;;;;5157298;27;20444;-61
2023/01/01 02:41:06;;;;;;;8.43;1.63;;;16.10;58.90;;;;;;5156540;27;20492;-62
2023/01/01 02:43:34;;;;;;;3.30;1.87;;;16.10;58.70;;;;;;5156059;27;20938;-62
2023/01/01 02:46:05;;;;;;;3.30;1.90;;;16.10;59.20;;;;;;5156823;27;20476;-61
2023/01/01 02:48:40;;;;;;;3.27;1.60;;;16.10;59.10;;;;;;5156779;27;20476;-62
2023/01/01 02:51:16;;;;;;;5.30;1.77;;;16.10;59.10;;;;;;5156192;27;20863;-61
2023/01/01 02:53:48;;;;;;;2.90;1.50;;;16.10;59.10;;;;;;5156718;27;20433;-62
2023/01/01 02:56:27;;;;;;;4.97;1.80;;;16.00;59.40;;;;;;5156535;27;20437;-62
2023/01/01 03:02:03;;;;;;;4.27;1.30;;;15.90;59.30;;;;;;5118671;27;20452;-61
2023/01/01 03:04:41;;;;;;;4.07;1.87;;;15.90;59.50;;;;;;5156126;27;20421;-61
2023/01/01 03:07:13;;;;;;;4.33;3.07;;;15.90;61.10;;;;;;5156158;27;20429;-62
2023/01/01 03:09:47;;;;;;;3.20;1.63;;;15.90;60.10;;;;;;5155943;27;20473;-61
2023/01/01 03:12:24;;;;;;;8.17;3.37;;;15.90;60.00;;;;;;5156229;27;20508;-61
2023/01/01 03:14:56;;;;;;;6.13;1.93;;;15.90;59.90;;;;;;5156244;27;20458;-61
2023/01/01 03:17:30;;;;;;;5.40;1.70;;;15.80;60.80;;;;;;5156058;27;20440;-61
2023/01/01 03:20:01;;;;;;;2.73;1.53;;;15.80;60.90;;;;;;5156105;27;20520;-61
2023/01/01 03:22:31;;;;;;;3.07;1.47;;;15.90;60.40;;;;;;5156402;27;20468;-61
2023/01/01 03:25:00;;;;;;;8.97;2.40;;;15.80;61.30;;;;;;5157106;27;20476;-62
2023/01/01 03:27:31;;;;;;;5.40;2.50;;;15.80;61.30;;;;;;5156242;27;20941;-61
2023/01/01 03:30:02;;;;;;;5.00;1.80;;;15.80;61.20;;;;;;5156433;27;20488;-61
2023/01/01 03:35:18;;;;;;;4.70;2.03;;;15.80;61.60;;;;;;5155388;27;20951;-61
2023/01/01 03:37:49;;;;;;;4.90;1.70;;;15.80;61.60;;;;;;5157109;27;20465;-62
2023/01/01 03:40:18;;;;;;;4.13;1.50;;;15.80;62.00;;;;;;5156793;27;20437;-61
2023/01/01 03:42:50;;;;;;;8.80;1.90;;;15.80;61.90;;;;;;5157658;27;20465;-61
2023/01/01 03:45:22;;;;;;;7.40;1.60;;;15.80;62.10;;;;;;5159538;27;20434;-61
2023/01/01 03:47:49;;;;;;;11.20;2.17;;;15.80;61.80;;;;;;5157647;27;20422;-61
2023/01/01 03:50:17;;;;;;;7.43;1.83;;;15.80;61.90;;;;;;5156022;27;20484;-61
2023/01/01 03:52:51;;;;;;;9.90;1.83;;;15.80;62.40;;;;;;5155747;27;20465;-61
2023/01/01 03:55:23;;;;;;;8.23;2.30;;;15.90;62.20;;;;;;5156166;27;20437;-61
2023/01/01 03:57:56;;;;;;;9.43;2.00;;;15.80;61.40;;;;;;5156409;27;20429;-61
2023/01/01 04:00:28;;;;;;;10.63;2.13;;;15.80;62.40;;;;;;5155650;27;20908;-62
2023/01/01 04:02:58;;;;;;;10.83;2.23;;;15.90;63.00;;;;;;5155536;27;20430;-61
2023/01/01 04:05:25;;;;;;;9.00;2.10;;;15.90;63.00;;;;;;5155532;27;20444;-61
2023/01/01 04:07:53;;;;;;;9.27;2.37;;;15.90;62.90;;;;;;5155070;27;20441;-61
2023/01/01 04:10:20;;;;;;;18.47;2.43;;;15.90;63.40;;;;;;5155228;27;20488;-61
2023/01/01 04:12:49;;;;;;;2.83;1.57;;;15.90;63.60;;;;;;5154726;27;20814;-61
2023/01/01 04:15:17;;;;;;;4.17;1.97;;;15.90;63.30;;;;;;5154980;27;20437;-61
2023/01/01 04:17:45;;;;;;;10.97;3.50;;;15.90;63.60;;;;;;5155959;27;20449;-61
2023/01/01 04:20:12;;;;;;;5.17;1.40;;;16.00;63.40;;;;;;5155061;27;20442;-62
2023/01/01 04:22:39;;;;;;;5.73;2.43;;;16.00;63.30;;;;;;5154987;27;20465;-62
2023/01/01 04:25:07;;;;;;;4.93;2.17;;;16.00;63.70;;;;;;5154900;27;20961;-61
2023/01/01 04:27:34;;;;;;;4.83;1.77;;;16.00;63.80;;;;;;5155155;27;20449;-61
2023/01/01 04:30:00;;;;;;;7.10;1.80;;;16.00;64.20;;;;;;5154867;27;20481;-62
2023/01/01 04:32:29;;;;;;;5.43;2.50;;;16.00;64.70;;;;;;5155018;27;20872;-61
2023/01/01 04:34:57;;;;;;;5.40;2.43;;;16.00;64.50;;;;;;5154893;27;20448;-61
2023/01/01 04:37:23;;;;;;;9.27;2.23;;;16.00;65.00;;;;;;5155523;27;20421;-61
2023/01/01 04:39:50;;;;;;;5.53;2.03;;;16.00;65.10;;;;;;5154802;27;20971;-62
2023/01/01 04:42:17;;;;;;;4.70;1.90;;;16.00;65.10;;;;;;5146307;27;20477;-61
2023/01/01 04:44:43;;;;;;;7.53;2.20;;;15.90;65.50;;;;;;5154904;27;20446;-61
2023/01/01 04:47:10;;;;;;;5.60;2.07;;;15.90;66.20;;;;;;5154492;27;20817;-61
2023/01/01 04:49:37;;;;;;;11.20;2.43;;;15.90;66.10;;;;;;5154626;27;20481;-61
2023/01/01 04:52:06;;;;;;;10.60;1.97;;;15.90;66.10;;;;;;5155101;27;20473;-61
2023/01/01 04:54:32;;;;;;;4.70;1.97;;;15.90;66.70;;;;;;5154735;27;20444;-61
2023/01/01 04:56:59;;;;;;;5.43;1.80;;;15.90;66.40;;;;;;5154780;27;20446;-61
2023/01/01 04:59:26;;;;;;;5.20;1.60;;;15.90;66.00;;;;;;5154665;27;20445;-62
2023/01/01 05:01:52;;;;;;;3.63;1.90;;;15.90;66.10;;;;;;5154681;27;20465;-61
2023/01/01 05:04:19;;;;;;;2.83;1.73;;;15.80;66.10;;;;;;5155388;27;20465;-61
2023/01/01 05:06:46;;;;;;;10.13;2.40;;;15.80;66.50;;;;;;5158514;27;20502;-61
2023/01/01 05:09:14;;;;;;;5.20;2.20;;;15.80;66.80;;;;;;5158272;27;20477;-61
2023/01/01 05:11:40;;;;;;;6.63;1.87;;;15.80;66.70;;;;;;5158199;27;20469;-61
2023/01/01 05:14:08;;;;;;;5.30;1.67;;;15.70;66.90;;;;;;5157714;27;20940;-61
2023/01/01 05:16:37;;;;;;;2.30;1.37;;;15.70;67.30;;;;;;5157773;27;20850;-61
2023/01/01 05:19:04;;;;;;;3.20;1.40;;;15.80;67.20;;;;;;5158230;27;20441;-61
2023/01/01 05:21:33;;;;;;;6.30;1.90;;;15.70;67.00;;;;;;5158069;27;20484;-61
2023/01/01 05:24:02;;;;;;;8.10;2.07;;;15.70;67.40;;;;;;5158021;27;20453;-61
2023/01/01 05:26:32;;;;;;;3.90;1.77;;;15.70;67.50;;;;;;5158390;27;20429;-61
2023/01/01 05:28:59;;;;;;;3.53;2.17;;;15.70;68.00;;;;;;5158034;27;20477;-61
2023/01/01 05:31:29;;;;;;;9.00;2.50;;;15.70;67.90;;;;;;5157702;27;20477;-61
2023/01/01 05:33:56;;;;;;;4.40;2.03;;;15.60;67.80;;;;;;5157573;27;20441;-61
2023/01/01 05:36:24;;;;;;;7.63;2.17;;;15.70;67.60;;;;;;5157719;27;20576;-61
2023/01/01 05:38:52;;;;;;;4.57;1.77;;;15.60;68.10;;;;;;5157689;27;20462;-61
2023/01/01 05:41:20;;;;;;;4.87;1.73;;;15.60;68.60;;;;;;5157505;27;20554;-62
2023/01/01 05:43:48;;;;;;;5.53;1.87;;;15.70;69.50;;;;;;5157614;27;20442;-61
2023/01/01 05:46:17;;;;;;;9.03;2.10;;;15.70;69.50;;;;;;5157150;27;20967;-62
2023/01/01 05:48:44;;;;;;;4.73;1.73;;;15.60;69.20;;;;;;5157405;27;20460;-61
2023/01/01 05:51:13;;;;;;;9.33;2.43;;;15.70;69.40;;;;;;5157219;27;20981;-61
2023/01/01 05:53:40;;;;;;;3.87;1.73;;;15.60;68.90;;;;;;5158116;27;20449;-61
2023/01/01 05:56:07;;;;;;;7.03;2.03;;;15.60;69.70;;;;;;5157604;27;20933;-62
2023/01/01 05:58:35;;;;;;;3.20;1.97;;;15.60;70.10;;;;;;5158264;27;20457;-62
2023/01/01 06:01:11;;;;;;;3.93;2.00;;;15.60;71.10;;;;;;5158028;27;20830;-62
2023/01/01 06:03:39;;;;;;;3.87;2.17;;;15.60;72.00;;;;;;5158088;27;20532;-62
2023/01/01 06:06:07;;;;;;;3.50;1.60;;;15.60;71.60;;;;;;5157961;27;20448;-62
2023/01/01 06:08:34;;;;;;;5.03;2.07;;;15.60;72.10;;;;;;5158276;27;20445;-61
2023/01/01 06:11:02;;;;;;;3.67;1.80;;;15.60;72.20;;;;;;5157593;27;20819;-62
2023/01/01 06:13:29;;;;;;;9.20;2.40;;;15.60;71.70;;;;;;5157144;27;20932;-62
2023/01/01 06:15:55;;;;;;;2.67;1.60;;;15.60;71.90;;;;;;5157431;27;20445;-61
2023/01/01 06:18:25;;;;;;;9.00;2.23;;;15.50;72.40;;;;;;5157510;27;20456;-61
2023/01/01 06:20:52;;;;;;;5.00;1.60;;;15.50;72.40;;;;;;5156988;27;20461;-62
2023/01/01 06:23:19;;;;;;;5.33;2.10;;;15.60;73.20;;;;;;5156959;27;20444;-61
2023/01/01 06:25:45;;;;;;;5.10;2.20;;;15.50;73.00;;;;;;5156610;27;20797;-61
2023/01/01 06:28:12;;;;;;;6.00;1.53;;;15.60;73.40;;;;;;5156873;27;20441;-61
2023/01/01 06:30:39;;;;;;;9.40;2.30;;;15.60;72.90;;;;;;5156662;27;20493;-62
2023/01/01 06:33:06;;;;;;;5.83;2.10;;;15.60;73.00;;;;;;5156788;27;20446;-61
2023/01/01 06:35:34;;;;;;;4.70;1.87;;;15.60;72.90;;;;;;5156605;27;20797;-61
2023/01/01 06:38:00;;;;;;;4.07;1.87;;;15.60;72.90;;;;;;5156287;27;20440;-61
2023/01/01 06:40:27;;;;;;;6.83;2.17;;;15.60;73.00;;;;;;5156089;27;20472;-62
2023/01/01 06:42:54;;;;;;;6.60;2.43;;;15.60;73.10;;;;;;5156525;27;20441;-61
2023/01/01 06:45:20;;;;;;;6.53;2.40;;;15.60;73.80;;;;;;5156252;27;20963;-61
2023/01/01 06:47:47;;;;;;;7.30;2.33;;;15.60;73.80;;;;;;5156072;27;20959;-61
2023/01/01 06:50:14;;;;;;;3.80;1.70;;;15.50;73.30;;;;;;5156458;27;20477;-61
2023/01/01 06:52:42;;;;;;;8.87;2.40;;;15.60;73.80;;;;;;5156267;27;20461;-61
2023/01/01 06:55:09;;;;;;;7.47;2.13;;;15.60;74.10;;;;;;5155765;27;20445;-61
2023/01/01 06:57:36;;;;;;;4.93;1.80;;;15.60;74.50;;;;;;5156012;27;20774;-61
2023/01/01 07:00:03;;;;;;;7.40;2.10;;;15.50;74.00;;;;;;5156219;27;20438;-61
2023/01/01 07:02:30;;;;;;;3.80;2.10;;;15.50;74.20;;;;;;5156074;27;20464;-61
2023/01/01 07:04:56;;;;;;;7.10;2.00;;;15.60;74.80;;;;;;5156437;27;20460;-61
2023/01/01 07:07:23;;;;;;;5.20;2.20;;;15.60;74.80;;;;;;5155832;27;20478;-61
2023/01/01 07:09:51;;;;;;;10.13;2.20;;;15.60;75.00;;;;;;5155621;27;20968;-62
2023/01/01 07:12:18;;;;;;;5.43;2.10;;;15.60;75.20;;;;;;5155625;27;20991;-61
2023/01/01 07:14:45;;;;;;;5.47;2.00;;;15.60;75.30;;;;;;5156047;27;20457;-61
2023/01/01 07:17:11;;;;;;;7.07;1.90;;;15.60;75.70;;;;;;5156056;27;20449;-61
2023/01/01 07:19:38;;;;;;;6.93;2.03;;;15.50;75.70;;;;;;5157044;27;20442;-61
2023/01/01 07:22:05;;;;;;;6.10;2.07;;;15.50;75.90;;;;;;5156356;27;20484;-62
2023/01/01 07:24:31;;;;;;;9.60;2.00;;;15.50;76.40;;;;;;5155857;27;20944;-62
2023/01/01 07:26:59;;;;;;;9.30;2.40;;;15.50;77.10;;;;;;5155660;27;20862;-62
2023/01/01 07:29:26;;;;;;;5.60;2.40;;;15.40;77.50;;;;;;5156921;27;20461;-62
2023/01/01 07:31:53;;;;;;;6.50;2.50;;;15.40;78.10;;;;;;5156963;27;20473;-61
2023/01/01 07:34:21;;;;;;;3.73;1.90;;;15.30;79.30;;;;;;5156962;27;20846;-62
2023/01/01 07:36:48;;;;;;;4.10;2.00;;;15.30;79.90;;;;;;5157776;27;20526;-62
2023/01/01 07:39:14;;;;;;;6.30;2.10;;;15.20;80.60;;;;;;5156751;27;20463;-62
2023/01/01 07:41:41;;;;;;;9.23;2.97;;;15.20;81.80;;;;;;5157757;27;20526;-62
2023/01/01 07:44:09;;;;;;;4.10;2.00;;;15.20;82.20;;;;;;5157018;27;20446;-62
2023/01/01 07:46:36;;;;;;;7.40;2.10;;;15.20;82.30;;;;;;5157922;27;20448;-62
2023/01/01 07:49:04;;;;;;;7.03;2.60;;;15.10;82.50;;;;;;5157196;27;20464;-62
2023/01/01 07:51:31;;;;;;;6.53;2.17;;;15.10;83.60;;;;;;5157253;27;20464;-62
2023/01/01 07:53:57;;;;;;;7.60;2.23;;;15.10;83.40;;;;;;5157179;27;20441;-62
2023/01/01 07:56:24;;;;;;;4.47;1.87;;;15.10;83.50;;;;;;5157079;27;20438;-62
2023/01/01 07:58:51;;;;;;;7.50;2.10;;;15.10;83.70;;;;;;5157510;27;20441;-61
2023/01/01 08:01:19;;;;;;;5.27;2.50;;;15.10;84.10;;;;;;5156154;27;20456;-62
2023/01/01 08:03:51;;;;;;;8.23;2.10;;;15.10;84.30;;;;;;5156233;27;20456;-61
2023/01/01 08:06:18;;;;;;;6.27;2.17;;;15.00;84.60;;;;;;5155842;27;20836;-61
2023/01/01 08:08:44;;;;;;;8.13;2.27;;;15.00;84.70;;;;;;5155336;27;20445;-61
2023/01/01 08:11:11;;;;;;;5.70;2.70;;;15.00;85.30;;;;;;5155456;27;20485;-62
2023/01/01 08:13:38;;;;;;;2.70;2.20;;;15.00;85.20;;;;;;5155446;27;20460;-61
2023/01/01 08:16:05;;;;;;;6.30;2.40;;;15.00;85.60;;;;;;5155294;27;20449;-61
2023/01/01 08:18:33;;;;;;;6.93;2.47;;;15.00;85.50;;;;;;5155206;27;20433;-61
2023/01/01 08:21:00;;;;;;;9.60;2.60;;;15.00;85.40;;;;;;5155016;27;20824;-61
2023/01/01 08:23:27;;;;;;;6.00;2.30;;;15.00;85.40;;;;;;5154968;27;20445;-61
2023/01/01 08:25:54;;;;;;;7.67;3.27;;;15.10;85.80;;;;;;5155107;27;20442;-61
2023/01/01 08:28:20;;;;;;;6.80;2.63;;;15.10;85.60;;;;;;5155076;27;20449;-61
2023/01/01 08:30:47;;;;;;;10.50;3.00;;;15.10;85.30;;;;;;5154925;27;20484;-61
2023/01/01 08:33:14;;;;;;;5.57;2.10;;;15.20;85.50;;;;;;5154847;27;20449;-61
2023/01/01 08:35:43;;;;;;;5.43;2.23;;;15.10;85.60;;;;;;5155014;27;20454;-61
2023/01/01 08:38:11;;;;;;;3.27;2.13;;;15.10;86.10;;;;;;5155221;27;20937;-61
2023/01/01 08:40:38;;;;;;;7.23;2.40;;;15.10;86.00;;;;;;5158226;27;20876;-62
2023/01/01 08:43:05;;;;;;;6.10;2.10;;;15.10;86.10;;;;;;5159599;27;20453;-61
2023/01/01 08:45:31;;;;;;;4.83;2.20;;;15.20;86.50;;;;;;5158846;27;20830;-61
2023/01/01 08:47:59;;;;;;;7.97;2.47;;;15.20;86.40;;;;;;5159022;27;20456;-61
2023/01/01 08:50:26;;;;;;;10.47;2.70;;;15.20;86.30;;;;;;5159475;27;20491;-62
2023/01/01 08:52:54;;;;;;;6.07;2.40;;;15.20;86.50;;;;;;5159014;27;20464;-61
2023/01/01 08:55:20;;;;;;;5.73;2.20;;;15.20;86.40;;;;;;5158984;27;20452;-61
2023/01/01 08:57:47;;;;;;;4.67;2.50;;;15.20;86.20;;;;;;5158462;27;20948;-61
2023/01/01 09:00:15;;;;;;;4.37;2.07;;;15.20;86.70;;;;;;5159197;27;20421;-61
2023/01/01 09:02:41;;;;;;;7.77;2.50;;;15.30;86.50;;;;;;5158776;27;20473;-61
2023/01/01 09:05:09;;;;;;;5.93;3.33;;;15.30;86.50;;;;;;5158837;27;20445;-61
2023/01/01 09:07:36;;;;;;;5.10;2.63;;;15.40;86.50;;;;;;5159136;27;20445;-61
2023/01/01 09:10:05;;;;;;;5.20;2.17;;;15.40;86.40;;;;;;5159286;27;20484;-61
2023/01/01 09:12:32;;;;;;;6.63;2.00;;;15.50;86.40;;;;;;5159731;27;20461;-61
2023/01/01 09:14:58;;;;;;;6.03;1.97;;;15.50;86.30;;;;;;5160007;27;20917;-61
2023/01/01 09:17:25;;;;;;;5.80;2.50;;;15.50;86.80;;;;;;5159245;27;20437;-62
2023/01/01 09:19:52;;;;;;;6.60;3.20;;;15.50;85.90;;;;;;5158810;27;20445;-61
2023/01/01 09:22:18;;;;;;;5.33;2.53;;;15.50;86.10;;;;;;5150930;27;20522;-61
2023/01/01 09:24:45;;;;;;;10.30;3.13;;;15.60;85.90;;;;;;5158614;27;20449;-61
2023/01/01 09:27:13;;;;;;;7.90;1.83;;;15.60;86.00;;;;;;5159195;27;20456;-61
2023/01/01 09:29:40;;;;;;;7.33;2.20;;;15.50;86.20;;;;;;5158529;27;20453;-61
2023/01/01 09:32:07;;;;;;;9.63;2.67;;;15.50;86.40;;;;;;5158536;27;20466;-61
2023/01/01 09:34:33;;;;;;;9.20;2.00;;;15.50;86.20;;;;;;5158601;27;20422;-62
2023/01/01 09:37:00;;;;;;;5.87;2.00;;;15.60;86.60;;;;;;5158512;27;20445;-61
2023/01/01 09:39:26;;;;;;;6.67;2.40;;;15.60;86.30;;;;;;5158126;27;20462;-61
2023/01/01 09:42:04;;;;;;;6.47;1.93;;;15.60;85.80;;;;;;5157936;27;20461;-61
2023/01/01 09:44:56;;;;;;;5.83;2.20;;;15.60;86.10;;;;;;5158305;27;20425;-61
2023/01/01 09:47:27;;;;;;;8.43;2.87;;;15.70;85.70;;;;;;5158069;27;20917;-61
2023/01/01 09:49:56;;;;;;;5.43;2.70;;;15.70;85.70;;;;;;5157460;27;20434;-62
2023/01/01 09:52:24;;;;;;;5.33;2.13;;;15.70;85.70;;;;;;5158280;27;20517;-61
2023/01/01 09:54:56;;;;;;;4.00;2.03;;;15.70;86.00;;;;;;5158485;27;20456;-61
2023/01/01 09:57:28;;;;;;;8.00;2.93;;;15.70;86.60;;;;;;5159053;27;20437;-61
2023/01/01 09:59:57;;;;;;;10.30;3.00;;;15.70;85.70;;;;;;5158784;27;20433;-61
2023/01/01 10:02:39;;;;;;;9.30;2.37;;;15.70;85.70;;;;;;5159033;27;20534;-61
2023/01/01 10:05:20;;;;;;;4.70;1.70;;;15.70;85.90;;;;;;5159981;27;20437;-61
2023/01/01 10:07:50;;;;;;;7.40;2.27;;;15.60;85.30;;;;;;5160006;27;20799;-62
2023/01/01 10:10:31;;;;;;;7.57;2.50;;;15.60;85.90;;;;;;5149510;27;20469;-61
2023/01/01 10:13:07;;;;;;;2.40;1.87;;;15.60;85.50;;;;;;5157438;27;20429;-61
2023/01/01 10:15:42;;;;;;;8.13;2.80;;;15.60;85.70;;;;;;5157825;27;20430;-61
2023/01/01 10:18:17;;;;;;;5.30;2.20;;;15.60;85.00;;;;;;5157671;27;20445;-61
2023/01/01 10:20:48;;;;;;;4.73;2.07;;;15.60;85.60;;;;;;5157413;27;20465;-61
2023/01/01 10:23:19;;;;;;;6.10;2.20;;;15.60;85.70;;;;;;5157426;27;20440;-61
2023/01/01 10:25:46;;;;;;;6.23;2.20;;;15.60;85.80;;;;;;5157307;27;20847;-61
2023/01/01 10:28:19;;;;;;;5.87;2.20;;;15.60;85.70;;;;;;5157417;27;20796;-61
2023/01/01 10:30:47;;;;;;;7.63;2.10;;;15.70;85.90;;;;;;5157119;27;20897;-61
2023/01/01 10:33:14;;;;;;;7.00;2.17;;;15.70;85.30;;;;;;5157220;27;20445;-61
2023/01/01 10:35:45;;;;;;;5.50;1.83;;;15.70;85.00;;;;;;5157128;27;20788;-61
2023/01/01 10:38:21;;;;;;;9.07;2.30;;;15.80;85.30;;;;;;5158330;27;20476;-61
2023/01/01 10:40:49;;;;;;;4.73;2.20;;;15.80;85.60;;;;;;5156866;27;20477;-62
2023/01/01 10:43:15;;;;;;;6.50;2.73;;;15.70;85.00;;;;;;5156892;27;20444;-61
2023/01/01 10:45:45;;;;;;;8.43;2.60;;;15.70;85.40;;;;;;5157877;27;20457;-61
2023/01/01 10:48:16;;;;;;;11.20;2.43;;;15.70;85.20;;;;;;5157118;27;20429;-61
2023/01/01 10:50:50;;;;;;;5.90;2.20;;;15.70;85.10;;;;;;5156870;27;20500;-62
2023/01/01 10:53:36;;;;;;;6.83;2.63;;;15.70;85.40;;;;;;5157140;27;20457;-62
2023/01/01 10:56:06;;;;;;;7.93;2.33;;;15.70;84.90;;;;;;5157673;27;20426;-62
2023/01/01 10:58:39;;;;;;;5.73;2.10;;;15.80;85.20;;;;;;5157027;27;20418;-61
2023/01/01 11:01:07;;;;;;;9.90;3.00;;;15.80;85.30;;;;;;5156324;27;20456;-61
2023/01/01 11:03:35;;;;;;;8.90;3.23;;;15.80;85.20;;;;;;5155516;27;20944;-61
2023/01/01 11:06:13;;;;;;;5.97;2.30;;;15.80;85.20;;;;;;5156817;27;20444;-61
2023/01/01 11:08:47;;;;;;;6.43;2.40;;;15.80;85.40;;;;;;5156340;27;20422;-61
2023/01/01 11:11:21;;;;;;;6.30;2.40;;;15.90;85.50;;;;;;5156323;27;20485;-61
2023/01/01 11:13:50;;;;;;;7.10;2.70;;;15.90;85.20;;;;;;5156385;27;20436;-61
2023/01/01 11:16:17;;;;;;;8.33;2.13;;;15.80;84.90;;;;;;5155924;27;20488;-61
2023/01/01 11:18:45;;;;;;;3.57;2.37;;;15.80;84.80;;;;;;5156124;27;20461;-61
2023/01/01 11:21:20;;;;;;;8.07;2.63;;;15.80;84.80;;;;;;5156215;27;20469;-61
2023/01/01 11:23:48;;;;;;;3.83;2.37;;;15.80;85.10;;;;;;5155801;27;20919;-61
2023/01/01 11:26:23;;;;;;;6.00;1.87;;;15.90;85.30;;;;;;5156002;27;20468;-61
2023/01/01 11:29:03;;;;;;;6.53;2.73;;;15.90;85.20;;;;;;5156368;27;20432;-61
2023/01/01 11:31:35;;;;;;;6.77;2.60;;;16.00;84.70;;;;;;5156869;27;20485;-62
2023/01/01 11:34:11;;;;;;;4.10;2.07;;;16.00;84.40;;;;;;5155100;27;20939;-60
2023/01/01 11:36:38;;;;;;;7.73;2.37;;;16.00;85.10;;;;;;5137083;27;20433;-61
2023/01/01 11:39:13;;;;;;;7.13;2.60;;;16.00;83.90;;;;;;5154962;27;20455;-61
2023/01/01 11:41:44;;;;;;;7.90;1.87;;;16.00;83.80;;;;;;5155398;27;20468;-61
2023/01/01 11:44:22;;;;;;;4.67;2.13;;;16.00;83.50;;;;;;5155483;27;20808;-61
2023/01/01 11:46:49;;;;;;;4.30;2.17;;;16.00;83.60;;;;;;5155301;27;20429;-61
2023/01/01 11:49:23;;;;;;;4.67;2.00;;;16.00;83.50;;;;;;5155032;27;20968;-62
2023/01/01 11:51:49;;;;;;;7.90;2.20;;;16.00;83.10;;;;;;5155404;27;20493;-60
2023/01/01 11:54:31;;;;;;;12.23;2.80;;;16.00;82.70;;;;;;5155609;27;20433;-61
2023/01/01 11:57:03;;;;;;;6.50;2.50;;;16.00;83.00;;;;;;5154885;27;20520;-61
2023/01/01 11:59:41;;;;;;;4.40;1.70;;;16.00;83.30;;;;;;5155351;27;20429;-61
2023/01/01 12:02:13;;;;;;;4.70;1.90;;;16.00;82.90;;;;;;5155007;27;20465;-61
2023/01/01 12:04:46;;;;;;;10.77;2.03;;;15.90;82.90;;;;;;5155145;27;20433;-61
2023/01/01 12:07:18;;;;;;;10.00;2.70;;;15.90;83.00;;;;;;5154888;27;20429;-61
2023/01/01 12:09:50;;;;;;;5.63;2.00;;;15.90;83.30;;;;;;5155085;27;20455;-61
2023/01/01 12:12:23;;;;;;;5.03;2.30;;;15.90;83.40;;;;;;5154884;27;20516;-60
2023/01/01 12:14:56;;;;;;;9.53;3.63;;;15.90;82.80;;;;;;5158559;27;20436;-61
2023/01/01 12:17:24;;;;;;;8.50;2.83;;;15.90;82.90;;;;;;5159158;27;20426;-61
2023/01/01 12:19:59;;;;;;;5.50;2.50;;;15.90;82.90;;;;;;5159107;27;20434;-61
2023/01/01 12:22:26;;;;;;;8.40;3.83;;;15.90;82.80;;;;;;5158711;27;20461;-61
2023/01/01 12:24:53;;;;;;;10.40;2.10;;;15.90;82.80;;;;;;5159027;27;20437;-61
2023/01/01 12:27:35;;;;;;;7.10;2.40;;;15.90;82.20;;;;;;5159035;27;20800;-61
2023/01/01 12:30:16;;;;;;;10.43;3.10;;;15.90;82.80;;;;;;5158979;27;20457;-61
2023/01/01 12:33:12;;;;;;;8.50;2.97;;;16.00;82.90;;;;;;5158393;27;20987;-60
2023/01/01 12:36:06;;;;;;;6.17;2.07;;;16.00;82.70;;;;;;5158473;27;20901;-61
2023/01/01 12:38:45;;;;;;;6.30;2.03;;;16.00;82.10;;;;;;5158813;27;20437;-60
2023/01/01 12:41:17;;;;;;;5.10;2.50;;;16.00;82.50;;;;;;5158536;27;20472;-61
2023/01/01 12:43:55;;;;;;;12.70;3.30;;;16.00;82.50;;;;;;5158728;27;20433;-61
2023/01/01 12:46:38;;;;;;;6.30;2.00;;;16.00;82.40;;;;;;5158675;27;20422;-61
2023/01/01 12:49:20;;;;;;;8.97;2.37;;;15.90;81.90;;;;;;5158360;27;20951;-61
2023/01/01 12:51:54;;;;;;;5.97;1.70;;;15.90;81.90;;;;;;5158324;27;20481;-61
2023/01/01 12:54:43;;;;;;;6.50;2.40;;;15.90;82.20;;;;;;5158482;27;20436;-61
2023/01/01 12:57:14;;;;;;;8.20;2.20;;;15.90;82.70;;;;;;5158416;27;20444;-61
2023/01/01 12:59:45;;;;;;;4.73;2.33;;;15.90;82.20;;;;;;5158320;27;20445;-61
2023/01/01 13:02:16;;;;;;;5.70;2.10;;;15.80;82.00;;;;;;5158574;27;20457;-61
2023/01/01 13:04:45;;;;;;;4.70;2.00;;;15.80;82.30;;;;;;5157964;27;20946;-61
2023/01/01 13:07:14;;;;;;;5.30;1.97;;;15.80;82.20;;;;;;5158206;27;20472;-61